Time;durP1;ratioP1;P1;durP2;ratioP2;P2;SDS_P1;SDS_P2;PMS_P1;PMS_P2;Temp;Humidity;BMP_temperature;BMP_pressure;BME280_temperature;BME280_humidity;BME280_pressure;Samples;Min_cycle;Max_cycle;Signal;HPM_P1;HPM_P2
2023/03/10 00:01:28;;;;;;;;;;;;;;;;;;5073526;28;2054;-44
2023/03/10 00:03:56;;;;;;;;;;;;;;;;;;5073839;28;2145;-45
2023/03/10 00:06:25;;;;;;;;;;;;;;;;;;5088727;28;1792;-46
2023/03/10 00:08:52;;;;;;;;;;;;;;;;;;5073997;28;2135;-52
2023/03/10 00:11:20;;;;;;;;;;;;;;;;;;5073555;28;1942;-51
2023/03/10 00:13:47;;;;;;;;;;;;;;;;;;5073752;28;2150;-44
2023/03/10 00:16:20;;;;;;;;;;;;;;;;;;5073410;28;1981;-44
2023/03/10 00:18:47;;;;;;;;;;;;;;;;;;5073162;28;2103;-47
2023/03/10 00:21:16;;;;;;;;;;;;;;;;;;5073330;28;1848;-46
2023/03/10 00:23:43;;;;;;;;;;;;;;;;;;5073289;28;1942;-57
2023/03/10 00:26:14;;;;;;;;;;;;;;;;;;5073314;28;1948;-52
2023/03/10 00:28:41;;;;;;;;;;;;;;;;;;5073253;28;2171;-53
2023/03/10 00:31:12;;;;;;;;;;;;;;;;;;5072317;28;2243;-52
2023/03/10 00:33:39;;;;;;;;;;;;;;;;;;5072845;28;1921;-52
2023/03/10 00:36:08;;;;;;;;;;;;;;;;;;5072836;28;1910;-53
2023/03/10 00:38:36;;;;;;;;;;;;;;;;;;5086940;28;1927;-51
2023/03/10 00:41:06;;;;;;;;;;;;;;;;;;5093158;28;1966;-42
2023/03/10 00:43:34;;;;;;;;;;;;;;;;;;5093164;28;2039;-51
2023/03/10 00:46:01;;;;;;;;;;;;;;;;;;5093050;28;2016;-48
2023/03/10 00:48:29;;;;;;;;;;;;;;;;;;5074820;28;2522;-54
2023/03/10 00:50:56;;;;;;;;;;;;;;;;;;5084689;28;1939;-56
2023/03/10 00:53:24;;;;;;;;;;;;;;;;;;5055082;28;1990;-58
2023/03/10 00:55:59;;;;;;;;;;;;;;;;;;5072798;28;2159;-53
2023/03/10 00:58:26;;;;;;;;;;;;;;;;;;5072754;28;2137;-45
2023/03/10 01:00:54;;;;;;;;;;;;;;;;;;5072428;28;2063;-48
2023/03/10 01:03:21;;;;;;;;;;;;;;;;;;5072772;28;1992;-45
2023/03/10 01:05:50;;;;;;;;;;;;;;;;;;5054575;28;1941;-52
2023/03/10 01:08:17;;;;;;;;;;;;;;;;;;5075633;28;1726;-45
2023/03/10 01:10:45;;;;;;;;;;;;;;;;;;5087374;28;2000;-44
2023/03/10 01:13:13;;;;;;;;;;;;;;;;;;5065092;28;2405;-46
2023/03/10 01:15:43;;;;;;;;;;;;;;;;;;5054236;28;1903;-54
2023/03/10 01:18:10;;;;;;;;;;;;;;;;;;5072213;28;2085;-48
2023/03/10 01:20:40;;;;;;;;;;;;;;;;;;5054101;28;1966;-45
2023/03/10 01:23:15;;;;;;;;;;;;;;;;;;5072133;28;2048;-45
2023/03/10 01:25:42;;;;;;;;;;;;;;;;;;5053987;28;1893;-51
2023/03/10 01:28:09;;;;;;;;;;;;;;;;;;5071962;28;1887;-47
2023/03/10 01:30:37;;;;;;;;;;;;;;;;;;5072035;28;2034;-44
2023/03/10 01:33:05;;;;;;;;;;;;;;;;;;5071514;28;1915;-48
2023/03/10 01:35:32;;;;;;;;;;;;;;;;;;5071618;28;2108;-45
2023/03/10 01:38:00;;;;;;;;;;;;;;;;;;5071931;28;1968;-49
2023/03/10 01:40:28;;;;;;;;;;;;;;;;;;5071935;28;1807;-46
2023/03/10 01:43:14;;;;;;;;;;;;;;;;;;5054046;28;2138;-47
2023/03/10 01:45:44;;;;;;;;;;;;;;;;;;5071434;28;2006;-44
2023/03/10 01:48:14;;;;;;;;;;;;;;;;;;5053929;28;2080;-42
2023/03/10 01:50:42;;;;;;;;;;;;;;;;;;5071519;28;1993;-44
2023/03/10 01:53:09;;;;;;;;;;;;;;;;;;5071558;28;2055;-45
2023/03/10 01:55:40;;;;;;;;;;;;;;;;;;5071273;28;1971;-53
2023/03/10 01:58:08;;;;;;;;;;;;;;;;;;5071449;28;1990;-46
2023/03/10 02:00:35;;;;;;;;;;;;;;;;;;5071539;28;2019;-45
2023/03/10 02:03:10;;;;;;;;;;;;;;;;;;5071462;28;2106;-46
2023/03/10 02:05:40;;;;;;;;;;;;;;;;;;5071377;28;1939;-44
2023/03/10 02:08:08;;;;;;;;;;;;;;;;;;5054961;28;2007;-45
2023/03/10 02:10:35;;;;;;;;;;;;;;;;;;5073314;28;1891;-54
2023/03/10 02:13:03;;;;;;;;;;;;;;;;;;5091432;28;2108;-44
2023/03/10 02:15:32;;;;;;;;;;;;;;;;;;5071952;28;1971;-45
2023/03/10 02:17:59;;;;;;;;;;;;;;;;;;5071420;28;1910;-56
2023/03/10 02:20:32;;;;;;;;;;;;;;;;;;5070032;28;1965;-47
2023/03/10 02:23:00;;;;;;;;;;;;;;;;;;5071605;28;1927;-44
2023/03/10 02:25:57;;;;;;;;;;;;;;;;;;5053468;28;2267;-51
2023/03/10 02:28:24;;;;;;;;;;;;;;;;;;5054216;28;1857;-54
2023/03/10 02:30:52;;;;;;;;;;;;;;;;;;5070046;28;2124;-45
2023/03/10 02:33:24;;;;;;;;;;;;;;;;;;5064551;28;1971;-45
2023/03/10 02:35:53;;;;;;;;;;;;;;;;;;5089853;28;1919;-53
2023/03/10 02:38:22;;;;;;;;;;;;;;;;;;5091093;28;1629;-46
2023/03/10 02:40:50;;;;;;;;;;;;;;;;;;5088970;28;1913;-46
2023/03/10 02:43:24;;;;;;;;;;;;;;;;;;5073078;28;2371;-55
2023/03/10 02:45:57;;;;;;;;;;;;;;;;;;5091101;28;2157;-54
2023/03/10 02:48:33;;;;;;;;;;;;;;;;;;5091190;28;2352;-55
2023/03/10 02:51:04;;;;;;;;;;;;;;;;;;5073060;28;1957;-45
2023/03/10 02:53:32;;;;;;;;;;;;;;;;;;5073262;28;1921;-52
2023/03/10 02:55:59;;;;;;;;;;;;;;;;;;5091215;28;1915;-45
2023/03/10 02:58:30;;;;;;;;;;;;;;;;;;5076804;28;2115;-52
2023/03/10 03:00:57;;;;;;;;;;;;;;;;;;5095046;28;1806;-46
2023/03/10 03:03:24;;;;;;;;;;;;;;;;;;5095049;28;1901;-45
2023/03/10 03:05:52;;;;;;;;;;;;;;;;;;5076598;28;2010;-48
2023/03/10 03:08:20;;;;;;;;;;;;;;;;;;5073164;28;1816;-45
2023/03/10 03:10:47;;;;;;;;;;;;;;;;;;5056824;28;1915;-46
2023/03/10 03:13:14;;;;;;;;;;;;;;;;;;5056551;28;1848;-54
2023/03/10 03:15:42;;;;;;;;;;;;;;;;;;5056521;28;2058;-45
2023/03/10 03:18:10;;;;;;;;;;;;;;;;;;5056447;28;2014;-46
2023/03/10 03:20:39;;;;;;;;;;;;;;;;;;5074125;28;2048;-44
2023/03/10 03:23:08;;;;;;;;;;;;;;;;;;5056687;28;1855;-45
2023/03/10 03:25:37;;;;;;;;;;;;;;;;;;5056484;28;1788;-46
2023/03/10 03:28:05;;;;;;;;;;;;;;;;;;5056543;28;1969;-46
2023/03/10 03:30:33;;;;;;;;;;;;;;;;;;5056441;28;2091;-49
2023/03/10 03:33:03;;;;;;;;;;;;;;;;;;5058214;28;2083;-44
2023/03/10 03:35:33;;;;;;;;;;;;;;;;;;5094412;28;1911;-43
2023/03/10 03:38:00;;;;;;;;;;;;;;;;;;5094647;28;1875;-45
2023/03/10 03:40:32;;;;;;;;;;;;;;;;;;5075797;28;2078;-46
2023/03/10 03:43:01;;;;;;;;;;;;;;;;;;5056093;28;1998;-49
2023/03/10 03:45:30;;;;;;;;;;;;;;;;;;5055850;28;1748;-45
2023/03/10 03:47:58;;;;;;;;;;;;;;;;;;5056053;28;1886;-44
2023/03/10 03:50:28;;;;;;;;;;;;;;;;;;5056035;28;2532;-46
2023/03/10 03:53:02;;;;;;;;;;;;;;;;;;5072763;28;1970;-45
2023/03/10 03:55:30;;;;;;;;;;;;;;;;;;5055767;28;2039;-48
2023/03/10 03:57:58;;;;;;;;;;;;;;;;;;5055820;28;2061;-44
2023/03/10 04:00:25;;;;;;;;;;;;;;;;;;5055653;28;1923;-44
2023/03/10 04:03:02;;;;;;;;;;;;;;;;;;5070411;28;6944;-46
2023/03/10 04:05:31;;;;;;;;;;;;;;;;;;5073677;28;2081;-44
2023/03/10 04:07:59;;;;;;;;;;;;;;;;;;5055834;28;2017;-50
2023/03/10 04:10:28;;;;;;;;;;;;;;;;;;5072846;28;1903;-45
2023/03/10 04:12:57;;;;;;;;;;;;;;;;;;5062099;28;2098;-56
2023/03/10 04:15:24;;;;;;;;;;;;;;;;;;5075396;28;1970;-47
2023/03/10 04:17:52;;;;;;;;;;;;;;;;;;5091358;28;10288;-55
2023/03/10 04:20:19;;;;;;;;;;;;;;;;;;5073038;28;1765;-51
2023/03/10 04:22:49;;;;;;;;;;;;;;;;;;5055334;28;2240;-51
2023/03/10 04:25:19;;;;;;;;;;;;;;;;;;5054385;28;2074;-44
2023/03/10 04:27:47;;;;;;;;;;;;;;;;;;5072075;28;2247;-44
2023/03/10 04:30:16;;;;;;;;;;;;;;;;;;5055294;28;1843;-50
2023/03/10 04:32:47;;;;;;;;;;;;;;;;;;5073164;28;1243;-47
2023/03/10 04:35:17;;;;;;;;;;;;;;;;;;5051610;28;1958;-46
2023/03/10 04:37:45;;;;;;;;;;;;;;;;;;5068310;28;2027;-46
2023/03/10 04:40:13;;;;;;;;;;;;;;;;;;5051814;28;2143;-48
2023/03/10 04:42:43;;;;;;;;;;;;;;;;;;5049529;28;2016;-47
2023/03/10 04:45:12;;;;;;;;;;;;;;;;;;5031818;28;1888;-53
2023/03/10 04:47:41;;;;;;;;;;;;;;;;;;5031567;28;1975;-47
2023/03/10 04:50:10;;;;;;;;;;;;;;;;;;5038868;28;2143;-48
2023/03/10 04:52:38;;;;;;;;;;;;;;;;;;5045789;28;1803;-44
2023/03/10 04:55:05;;;;;;;;;;;;;;;;;;5051267;28;2302;-49
2023/03/10 04:57:33;;;;;;;;;;;;;;;;;;5051259;28;2010;-45
2023/03/10 05:00:01;;;;;;;;;;;;;;;;;;5051316;28;1536;-55
2023/03/10 05:02:30;;;;;;;;;;;;;;;;;;5051085;28;1808;-47
2023/03/10 05:05:00;;;;;;;;;;;;;;;;;;5051131;28;1907;-41
2023/03/10 05:07:28;;;;;;;;;;;;;;;;;;5050435;28;2133;-46
2023/03/10 05:09:57;;;;;;;;;;;;;;;;;;5047643;28;1942;-44
2023/03/10 05:12:25;;;;;;;;;;;;;;;;;;5047675;28;1957;-48
2023/03/10 05:14:53;;;;;;;;;;;;;;;;;;5031054;28;1933;-50
2023/03/10 05:17:21;;;;;;;;;;;;;;;;;;5047643;28;1965;-45
2023/03/10 05:19:48;;;;;;;;;;;;;;;;;;5031546;28;1385;-47
2023/03/10 05:22:16;;;;;;;;;;;;;;;;;;5030997;28;1811;-46
2023/03/10 05:24:43;;;;;;;;;;;;;;;;;;5033204;28;2289;-47
2023/03/10 05:27:11;;;;;;;;;;;;;;;;;;5032312;28;1836;-42
2023/03/10 05:29:41;;;;;;;;;;;;;;;;;;5047454;28;1856;-45
2023/03/10 05:32:15;;;;;;;;;;;;;;;;;;5054453;28;1887;-45
2023/03/10 05:34:45;;;;;;;;;;;;;;;;;;5050540;28;2189;-45
2023/03/10 05:37:13;;;;;;;;;;;;;;;;;;5053585;28;2074;-44
2023/03/10 05:39:42;;;;;;;;;;;;;;;;;;5059534;28;2010;-45
2023/03/10 05:42:15;;;;;;;;;;;;;;;;;;5033785;28;1870;-44
2023/03/10 05:44:43;;;;;;;;;;;;;;;;;;5034200;28;1998;-44
2023/03/10 05:47:12;;;;;;;;;;;;;;;;;;5034337;28;1982;-54
2023/03/10 05:49:40;;;;;;;;;;;;;;;;;;5052016;28;2015;-44
2023/03/10 05:52:07;;;;;;;;;;;;;;;;;;5051760;28;2065;-45
2023/03/10 05:54:36;;;;;;;;;;;;;;;;;;5033623;28;2122;-45
2023/03/10 05:57:04;;;;;;;;;;;;;;;;;;5033634;28;1968;-44
2023/03/10 05:59:31;;;;;;;;;;;;;;;;;;5043694;28;2227;-44
2023/03/10 06:01:59;;;;;;;;;;;;;;;;;;5033680;28;1993;-45
2023/03/10 06:04:32;;;;;;;;;;;;;;;;;;5051347;28;1773;-49
2023/03/10 06:06:59;;;;;;;;;;;;;;;;;;5051178;28;2094;-48
2023/03/10 06:09:27;;;;;;;;;;;;;;;;;;5063797;28;2039;-46
2023/03/10 06:11:55;;;;;;;;;;;;;;;;;;5071325;28;1972;-44
2023/03/10 06:14:22;;;;;;;;;;;;;;;;;;5071117;28;1943;-50
2023/03/10 06:16:50;;;;;;;;;;;;;;;;;;5071115;28;1982;-51
2023/03/10 06:19:17;;;;;;;;;;;;;;;;;;5071159;28;2052;-54
2023/03/10 06:21:45;;;;;;;;;;;;;;;;;;5071243;28;1747;-45
2023/03/10 06:24:12;;;;;;;;;;;;;;;;;;5059180;28;2092;-48
2023/03/10 06:26:39;;;;;;;;;;;;;;;;;;5051122;28;2056;-44
2023/03/10 06:29:06;;;;;;;;;;;;;;;;;;5051051;28;1979;-55
2023/03/10 06:31:34;;;;;;;;;;;;;;;;;;5051009;28;1895;-44
2023/03/10 06:34:01;;;;;;;;;;;;;;;;;;5051408;28;1859;-51
2023/03/10 06:36:33;;;;;;;;;;;;;;;;;;5050840;28;2002;-47
2023/03/10 06:39:00;;;;;;;;;;;;;;;;;;5050958;28;2065;-53
2023/03/10 06:41:27;;;;;;;;;;;;;;;;;;5033274;28;2204;-53
2023/03/10 06:43:55;;;;;;;;;;;;;;;;;;5051046;28;2011;-55
2023/03/10 06:46:24;;;;;;;;;;;;;;;;;;5050827;28;2009;-54
2023/03/10 06:48:51;;;;;;;;;;;;;;;;;;5050793;28;1961;-50
2023/03/10 06:51:19;;;;;;;;;;;;;;;;;;5050889;28;1996;-44
2023/03/10 06:53:48;;;;;;;;;;;;;;;;;;5058661;28;1995;-44
2023/03/10 06:56:16;;;;;;;;;;;;;;;;;;5071129;28;1992;-46
2023/03/10 06:58:44;;;;;;;;;;;;;;;;;;5070932;28;2102;-48
2023/03/10 07:01:24;;;;;;;;;;;;;;;;;;5070716;28;2242;-46
2023/03/10 07:03:52;;;;;;;;;;;;;;;;;;5070690;28;1890;-46
2023/03/10 07:06:20;;;;;;;;;;;;;;;;;;5070884;28;2054;-47
2023/03/10 07:08:47;;;;;;;;;;;;;;;;;;5063680;28;2080;-45
2023/03/10 07:11:14;;;;;;;;;;;;;;;;;;5051043;28;2125;-44
2023/03/10 07:13:42;;;;;;;;;;;;;;;;;;5050471;28;2296;-45
2023/03/10 07:16:09;;;;;;;;;;;;;;;;;;5050598;28;1979;-45
2023/03/10 07:18:36;;;;;;;;;;;;;;;;;;5050641;28;1970;-44
2023/03/10 07:21:10;;;;;;;;;;;;;;;;;;5050607;28;1985;-46
2023/03/10 07:23:38;;;;;;;;;;;;;;;;;;5050629;28;2107;-45
2023/03/10 07:26:07;;;;;;;;;;;;;;;;;;5050554;28;2137;-46
2023/03/10 07:28:36;;;;;;;;;;;;;;;;;;5050509;28;1955;-53
2023/03/10 07:31:09;;;;;;;;;;;;;;;;;;5050529;28;1827;-49
2023/03/10 07:33:37;;;;;;;;;;;;;;;;;;5050483;28;2124;-45
2023/03/10 07:36:05;;;;;;;;;;;;;;;;;;5050388;28;2000;-49
2023/03/10 07:38:33;;;;;;;;;;;;;;;;;;5032733;28;1912;-44
2023/03/10 07:41:00;;;;;;;;;;;;;;;;;;5050394;28;1923;-50
2023/03/10 07:43:28;;;;;;;;;;;;;;;;;;5052158;28;1753;-62
2023/03/10 07:45:55;;;;;;;;;;;;;;;;;;5053982;28;2094;-57
2023/03/10 07:48:22;;;;;;;;;;;;;;;;;;5054035;28;1990;-48
2023/03/10 07:50:56;;;;;;;;;;;;;;;;;;5054244;28;1840;-49
2023/03/10 07:53:24;;;;;;;;;;;;;;;;;;5053778;28;2234;-44
2023/03/10 07:55:51;;;;;;;;;;;;;;;;;;5054058;28;2078;-44
2023/03/10 07:58:19;;;;;;;;;;;;;;;;;;5053934;28;2026;-45
2023/03/10 08:00:52;;;;;;;;;;;;;;;;;;5053844;28;2268;-45
2023/03/10 08:03:19;;;;;;;;;;;;;;;;;;5071236;28;1846;-45
2023/03/10 08:05:46;;;;;;;;;;;;;;;;;;5073636;28;1929;-56
2023/03/10 08:08:13;;;;;;;;;;;;;;;;;;5071109;28;1820;-47
2023/03/10 08:10:41;;;;;;;;;;;;;;;;;;5053729;28;2076;-47
2023/03/10 08:13:08;;;;;;;;;;;;;;;;;;5053569;28;2120;-58
2023/03/10 08:15:38;;;;;;;;;;;;;;;;;;5053441;28;1930;-46
2023/03/10 08:18:06;;;;;;;;;;;;;;;;;;5053464;28;2146;-56
2023/03/10 08:20:34;;;;;;;;;;;;;;;;;;5053330;28;1757;-45
2023/03/10 08:23:02;;;;;;;;;;;;;;;;;;5053364;28;2218;-54
2023/03/10 08:25:30;;;;;;;;;;;;;;;;;;5053368;28;1999;-54
2023/03/10 08:27:58;;;;;;;;;;;;;;;;;;5053265;28;2301;-56
2023/03/10 08:30:25;;;;;;;;;;;;;;;;;;5053237;28;2070;-53
2023/03/10 08:32:52;;;;;;;;;;;;;;;;;;5053385;28;2020;-57
2023/03/10 08:35:19;;;;;;;;;;;;;;;;;;5053240;28;1941;-55
2023/03/10 08:37:47;;;;;;;;;;;;;;;;;;5053182;28;1980;-54
2023/03/10 08:40:15;;;;;;;;;;;;;;;;;;5052985;28;1944;-56
2023/03/10 08:42:42;;;;;;;;;;;;;;;;;;5053540;28;2162;-57
2023/03/10 08:45:12;;;;;;;;;;;;;;;;;;5052936;28;1351;-52
2023/03/10 08:47:39;;;;;;;;;;;;;;;;;;5052801;28;2200;-46
2023/03/10 08:50:06;;;;;;;;;;;;;;;;;;5052924;28;2061;-50
2023/03/10 08:52:33;;;;;;;;;;;;;;;;;;5052698;28;2015;-52
2023/03/10 08:55:03;;;;;;;;;;;;;;;;;;5068676;28;1917;-45
2023/03/10 08:57:31;;;;;;;;;;;;;;;;;;5072717;28;1987;-52
2023/03/10 08:59:58;;;;;;;;;;;;;;;;;;5072512;28;2226;-45
2023/03/10 09:02:28;;;;;;;;;;;;;;;;;;5072998;28;1932;-47
2023/03/10 09:04:55;;;;;;;;;;;;;;;;;;5072787;28;2085;-48
2023/03/10 09:07:22;;;;;;;;;;;;;;;;;;5072764;28;2087;-47
2023/03/10 09:09:50;;;;;;;;;;;;;;;;;;5056546;28;2055;-45
2023/03/10 09:12:17;;;;;;;;;;;;;;;;;;5052482;28;2065;-49
2023/03/10 09:14:44;;;;;;;;;;;;;;;;;;5052256;28;1817;-48
2023/03/10 09:17:11;;;;;;;;;;;;;;;;;;5052473;28;1911;-47
2023/03/10 09:19:38;;;;;;;;;;;;;;;;;;5052369;28;2126;-46
2023/03/10 09:22:06;;;;;;;;;;;;;;;;;;5052288;28;2180;-49
2023/03/10 09:24:33;;;;;;;;;;;;;;;;;;5054226;28;1898;-46
2023/03/10 09:27:00;;;;;;;;;;;;;;;;;;5052188;28;1812;-48
2023/03/10 09:29:28;;;;;;;;;;;;;;;;;;5052123;28;2246;-47
2023/03/10 09:32:09;;;;;;;;;;;;;;;;;;5052565;28;2038;-49
2023/03/10 09:34:36;;;;;;;;;;;;;;;;;;5051964;28;2058;-46
2023/03/10 09:37:04;;;;;;;;;;;;;;;;;;5051685;28;2060;-53
2023/03/10 09:39:34;;;;;;;;;;;;;;;;;;5051837;28;1996;-45
2023/03/10 09:42:19;;;;;;;;;;;;;;;;;;5051869;28;2080;-47
2023/03/10 09:44:59;;;;;;;;;;;;;;;;;;5051792;28;1987;-44
2023/03/10 09:47:32;;;;;;;;;;;;;;;;;;5052002;28;1774;-53
2023/03/10 09:50:23;;;;;;;;;;;;;;;;;;5051516;28;1898;-52
2023/03/10 09:52:59;;;;;;;;;;;;;;;;;;5051609;28;2061;-46
2023/03/10 09:55:29;;;;;;;;;;;;;;;;;;5052047;28;2113;-45
2023/03/10 09:57:56;;;;;;;;;;;;;;;;;;5051672;28;1967;-50
2023/03/10 10:00:27;;;;;;;;;;;;;;;;;;5051547;28;1894;-48
2023/03/10 10:03:14;;;;;;;;;;;;;;;;;;5051655;28;1657;-46
2023/03/10 10:05:42;;;;;;;;;;;;;;;;;;5050165;28;2001;-50
2023/03/10 10:08:21;;;;;;;;;;;;;;;;;;5053183;28;2001;-43
2023/03/10 10:10:55;;;;;;;;;;;;;;;;;;5071359;28;2192;-55
2023/03/10 10:13:24;;;;;;;;;;;;;;;;;;5071479;28;2196;-51
2023/03/10 10:16:11;;;;;;;;;;;;;;;;;;5071320;28;1999;-55
2023/03/10 10:19:18;;;;;;;;;;;;;;;;;;5069378;28;1910;-58
2023/03/10 10:21:46;;;;;;;;;;;;;;;;;;5071145;28;1975;-47
2023/03/10 10:24:14;;;;;;;;;;;;;;;;;;5068858;28;2135;-47
2023/03/10 10:26:41;;;;;;;;;;;;;;;;;;5051248;28;1880;-48
2023/03/10 10:29:14;;;;;;;;;;;;;;;;;;5033309;28;2174;-47
2023/03/10 10:31:42;;;;;;;;;;;;;;;;;;5051001;28;1918;-46
2023/03/10 10:34:19;;;;;;;;;;;;;;;;;;5051034;28;2193;-52
2023/03/10 10:36:50;;;;;;;;;;;;;;;;;;5051009;28;1959;-58
2023/03/10 10:39:22;;;;;;;;;;;;;;;;;;5048924;28;2038;-54
2023/03/10 10:41:50;;;;;;;;;;;;;;;;;;5071072;28;1785;-51
2023/03/10 10:44:17;;;;;;;;;;;;;;;;;;5070983;28;2039;-50
2023/03/10 10:46:55;;;;;;;;;;;;;;;;;;5071062;28;2146;-49
2023/03/10 10:49:26;;;;;;;;;;;;;;;;;;5070823;28;2086;-54
2023/03/10 10:51:58;;;;;;;;;;;;;;;;;;5070991;28;1999;-53
2023/03/10 10:54:27;;;;;;;;;;;;;;;;;;5070818;28;2100;-49
2023/03/10 10:56:56;;;;;;;;;;;;;;;;;;5070877;28;1843;-57
2023/03/10 10:59:28;;;;;;;;;;;;;;;;;;5070142;28;1908;-53
2023/03/10 11:02:15;;;;;;;;;;;;;;;;;;5070975;28;2062;-48
2023/03/10 11:04:45;;;;;;;;;;;;;;;;;;5060684;28;2027;-48
2023/03/10 11:07:16;;;;;;;;;;;;;;;;;;5070744;28;1940;-50
2023/03/10 11:09:44;;;;;;;;;;;;;;;;;;5055619;28;1882;-49
2023/03/10 11:12:20;;;;;;;;;;;;;;;;;;5050848;28;2002;-49
2023/03/10 11:15:11;;;;;;;;;;;;;;;;;;5050777;28;1959;-44
2023/03/10 11:17:38;;;;;;;;;;;;;;;;;;5050738;28;1907;-47
2023/03/10 11:20:08;;;;;;;;;;;;;;;;;;5054687;28;2083;-45
2023/03/10 11:22:54;;;;;;;;;;;;;;;;;;5054345;28;2073;-46
2023/03/10 11:25:35;;;;;;;;;;;;;;;;;;5054345;28;2195;-42
2023/03/10 11:28:11;;;;;;;;;;;;;;;;;;5054433;28;1926;-46
2023/03/10 11:30:46;;;;;;;;;;;;;;;;;;5054463;28;1939;-43
2023/03/10 11:33:16;;;;;;;;;;;;;;;;;;5054395;28;1966;-47
2023/03/10 11:35:44;;;;;;;;;;;;;;;;;;5054180;28;1819;-44
2023/03/10 11:38:12;;;;;;;;;;;;;;;;;;5054128;28;1985;-51
2023/03/10 11:41:05;;;;;;;;;;;;;;;;;;5054097;28;1991;-43
2023/03/10 11:43:51;;;;;;;;;;;;;;;;;;5051796;28;1987;-46
2023/03/10 11:46:23;;;;;;;;;;;;;;;;;;5054728;28;2028;-44
2023/03/10 11:48:54;;;;;;;;;;;;;;;;;;5053906;28;2011;-45
2023/03/10 11:51:26;;;;;;;;;;;;;;;;;;5054046;28;1962;-46
2023/03/10 11:53:54;;;;;;;;;;;;;;;;;;5054012;28;2142;-44
2023/03/10 11:56:22;;;;;;;;;;;;;;;;;;5054030;28;2122;-45
2023/03/10 11:59:08;;;;;;;;;;;;;;;;;;5053679;28;2073;-47
2023/03/10 12:01:47;;;;;;;;;;;;;;;;;;5053989;28;1805;-49
2023/03/10 12:04:21;;;;;;;;;;;;;;;;;;5053875;28;1932;-45
2023/03/10 12:06:52;;;;;;;;;;;;;;;;;;5052528;28;1980;-46
2023/03/10 12:09:39;;;;;;;;;;;;;;;;;;5065407;28;2021;-50
2023/03/10 12:12:11;;;;;;;;;;;;;;;;;;5073703;28;2112;-43
2023/03/10 12:14:39;;;;;;;;;;;;;;;;;;5073690;28;1865;-44
2023/03/10 12:17:10;;;;;;;;;;;;;;;;;;5073727;28;2078;-47
2023/03/10 12:19:56;;;;;;;;;;;;;;;;;;5063085;28;1902;-44
2023/03/10 12:22:23;;;;;;;;;;;;;;;;;;5053602;28;2096;-46
2023/03/10 12:24:51;;;;;;;;;;;;;;;;;;5053542;28;1782;-48
2023/03/10 12:27:19;;;;;;;;;;;;;;;;;;5053480;28;1906;-50
2023/03/10 12:29:46;;;;;;;;;;;;;;;;;;5053231;28;1851;-47
2023/03/10 12:32:32;;;;;;;;;;;;;;;;;;5053676;28;1593;-48
2023/03/10 12:35:18;;;;;;;;;;;;;;;;;;5035417;28;2029;-52
2023/03/10 12:37:45;;;;;;;;;;;;;;;;;;5053279;28;1907;-48
2023/03/10 12:40:41;;;;;;;;;;;;;;;;;;5053016;28;2149;-55
2023/03/10 12:43:34;;;;;;;;;;;;;;;;;;5026112;28;1845;-50
2023/03/10 12:46:02;;;;;;;;;;;;;;;;;;5022891;28;1795;-52
2023/03/10 12:48:31;;;;;;;;;;;;;;;;;;5052978;28;1823;-50
2023/03/10 12:51:00;;;;;;;;;;;;;;;;;;5051564;28;1921;-55
2023/03/10 12:53:27;;;;;;;;;;;;;;;;;;5052758;28;2303;-52
2023/03/10 12:56:14;;;;;;;;;;;;;;;;;;5052871;28;2223;-45
2023/03/10 12:59:04;;;;;;;;;;;;;;;;;;5052749;28;2200;-45
2023/03/10 13:01:34;;;;;;;;;;;;;;;;;;5042413;28;1742;-46
2023/03/10 13:04:05;;;;;;;;;;;;;;;;;;5052706;28;1780;-51
2023/03/10 13:06:34;;;;;;;;;;;;;;;;;;5052451;28;1885;-48
2023/03/10 13:09:19;;;;;;;;;;;;;;;;;;5057167;28;2118;-45
2023/03/10 13:12:02;;;;;;;;;;;;;;;;;;5052430;28;2053;-49
2023/03/10 13:14:35;;;;;;;;;;;;;;;;;;5052185;28;2039;-47
2023/03/10 13:17:03;;;;;;;;;;;;;;;;;;5052487;28;1963;-50
2023/03/10 13:19:34;;;;;;;;;;;;;;;;;;5052235;28;2058;-54
2023/03/10 13:22:03;;;;;;;;;;;;;;;;;;5052462;28;1922;-46
2023/03/10 13:24:35;;;;;;;;;;;;;;;;;;5033709;28;2122;-52
2023/03/10 13:27:10;;;;;;;;;;;;;;;;;;5052230;28;2002;-45
2023/03/10 13:29:38;;;;;;;;;;;;;;;;;;5052119;28;2128;-47
2023/03/10 13:32:05;;;;;;;;;;;;;;;;;;5052127;28;1969;-47
2023/03/10 13:34:32;;;;;;;;;;;;;;;;;;5051970;28;2037;-46
2023/03/10 13:37:06;;;;;;;;;;;;;;;;;;5060279;28;1815;-45
2023/03/10 13:39:33;;;;;;;;;;;;;;;;;;5066967;28;2185;-49
2023/03/10 13:42:02;;;;;;;;;;;;;;;;;;5071268;28;1923;-49
2023/03/10 13:44:38;;;;;;;;;;;;;;;;;;5071895;28;1904;-45
2023/03/10 13:47:16;;;;;;;;;;;;;;;;;;5071600;28;1902;-48
2023/03/10 13:49:46;;;;;;;;;;;;;;;;;;5071830;28;1993;-46
2023/03/10 13:52:16;;;;;;;;;;;;;;;;;;5071860;28;1905;-43
2023/03/10 13:54:43;;;;;;;;;;;;;;;;;;5071702;28;1593;-47
2023/03/10 13:57:28;;;;;;;;;;;;;;;;;;5071899;28;2097;-47
2023/03/10 13:59:57;;;;;;;;;;;;;;;;;;5071354;28;1992;-47
2023/03/10 14:02:27;;;;;;;;;;;;;;;;;;5071707;28;2011;-46
2023/03/10 14:04:56;;;;;;;;;;;;;;;;;;5071620;28;1989;-44
2023/03/10 14:07:25;;;;;;;;;;;;;;;;;;5060384;28;1879;-46
2023/03/10 14:10:04;;;;;;;;;;;;;;;;;;5067479;28;2210;-47
2023/03/10 14:12:38;;;;;;;;;;;;;;;;;;5071436;28;2103;-45
2023/03/10 14:15:17;;;;;;;;;;;;;;;;;;5065762;28;1991;-45
2023/03/10 14:17:46;;;;;;;;;;;;;;;;;;5051287;28;2140;-47
2023/03/10 14:20:31;;;;;;;;;;;;;;;;;;5051412;28;1977;-45
2023/03/10 14:22:59;;;;;;;;;;;;;;;;;;5050910;28;2184;-48
2023/03/10 14:25:27;;;;;;;;;;;;;;;;;;5051458;28;1886;-43
2023/03/10 14:27:55;;;;;;;;;;;;;;;;;;5051304;28;2065;-46
2023/03/10 14:30:24;;;;;;;;;;;;;;;;;;5051128;28;1810;-47
2023/03/10 14:32:52;;;;;;;;;;;;;;;;;;5033174;28;2184;-44
2023/03/10 14:35:20;;;;;;;;;;;;;;;;;;5051020;28;2070;-42
2023/03/10 14:37:48;;;;;;;;;;;;;;;;;;5050832;28;1555;-44
2023/03/10 14:40:16;;;;;;;;;;;;;;;;;;5050993;28;2119;-45
2023/03/10 14:42:43;;;;;;;;;;;;;;;;;;5065037;28;1973;-44
2023/03/10 14:45:26;;;;;;;;;;;;;;;;;;5071049;28;2018;-48
2023/03/10 14:47:55;;;;;;;;;;;;;;;;;;5067040;28;1985;-43
2023/03/10 14:50:23;;;;;;;;;;;;;;;;;;5051129;28;1891;-48
2023/03/10 14:52:50;;;;;;;;;;;;;;;;;;5053437;28;1857;-46
2023/03/10 14:55:17;;;;;;;;;;;;;;;;;;5053842;28;1762;-44
2023/03/10 14:57:46;;;;;;;;;;;;;;;;;;5055488;28;2310;-44
2023/03/10 15:00:15;;;;;;;;;;;;;;;;;;5055029;28;1963;-45
2023/03/10 15:02:42;;;;;;;;;;;;;;;;;;5054978;28;2067;-44
2023/03/10 15:05:13;;;;;;;;;;;;;;;;;;5054958;28;2281;-46
2023/03/10 15:07:40;;;;;;;;;;;;;;;;;;5054203;28;1835;-43
2023/03/10 15:10:07;;;;;;;;;;;;;;;;;;5072576;28;2112;-44
2023/03/10 15:12:38;;;;;;;;;;;;;;;;;;5074703;28;1846;-45
2023/03/10 15:15:12;;;;;;;;;;;;;;;;;;5060367;28;2100;-44
2023/03/10 15:17:39;;;;;;;;;;;;;;;;;;5054343;28;1925;-44
2023/03/10 15:20:13;;;;;;;;;;;;;;;;;;5054585;28;1974;-43
2023/03/10 15:22:40;;;;;;;;;;;;;;;;;;5054438;28;2102;-41
2023/03/10 15:25:07;;;;;;;;;;;;;;;;;;5054342;28;2013;-44
2023/03/10 15:27:34;;;;;;;;;;;;;;;;;;5059328;28;1977;-43
2023/03/10 15:30:01;;;;;;;;;;;;;;;;;;5054310;28;1907;-44
2023/03/10 15:32:29;;;;;;;;;;;;;;;;;;5036442;28;2010;-42
2023/03/10 15:34:56;;;;;;;;;;;;;;;;;;5054164;28;2013;-43
2023/03/10 15:37:23;;;;;;;;;;;;;;;;;;5054245;28;1929;-44
2023/03/10 15:39:50;;;;;;;;;;;;;;;;;;5054310;28;1989;-47
2023/03/10 15:42:18;;;;;;;;;;;;;;;;;;5054402;28;2020;-45
2023/03/10 15:44:47;;;;;;;;;;;;;;;;;;5053085;28;2164;-43
2023/03/10 15:47:14;;;;;;;;;;;;;;;;;;5054169;28;1873;-52
2023/03/10 15:49:41;;;;;;;;;;;;;;;;;;5053993;28;1886;-45
2023/03/10 15:52:08;;;;;;;;;;;;;;;;;;5053717;28;2113;-47
2023/03/10 15:54:35;;;;;;;;;;;;;;;;;;5053354;28;1935;-48
2023/03/10 15:57:02;;;;;;;;;;;;;;;;;;5053746;28;2043;-49
2023/03/10 15:59:29;;;;;;;;;;;;;;;;;;5053991;28;1972;-51
2023/03/10 16:01:56;;;;;;;;;;;;;;;;;;5053883;28;1930;-43
2023/03/10 16:04:24;;;;;;;;;;;;;;;;;;5052977;28;2072;-44
2023/03/10 16:06:51;;;;;;;;;;;;;;;;;;5053979;28;2046;-44
2023/03/10 16:09:18;;;;;;;;;;;;;;;;;;5053648;28;1884;-50
2023/03/10 16:11:45;;;;;;;;;;;;;;;;;;5053601;28;2047;-51
2023/03/10 16:14:12;;;;;;;;;;;;;;;;;;5053596;28;1652;-48
2023/03/10 16:16:40;;;;;;;;;;;;;;;;;;5053537;28;2051;-54
2023/03/10 16:19:07;;;;;;;;;;;;;;;;;;5053352;28;2002;-45
2023/03/10 16:21:34;;;;;;;;;;;;;;;;;;5055427;28;1868;-43
2023/03/10 16:24:01;;;;;;;;;;;;;;;;;;5073199;28;1902;-49
2023/03/10 16:26:29;;;;;;;;;;;;;;;;;;5073281;28;2137;-45
2023/03/10 16:28:56;;;;;;;;;;;;;;;;;;5073189;28;2003;-44
2023/03/10 16:31:25;;;;;;;;;;;;;;;;;;5073408;28;1944;-44
2023/03/10 16:33:53;;;;;;;;;;;;;;;;;;5073548;28;1411;-56
2023/03/10 16:36:22;;;;;;;;;;;;;;;;;;5072877;28;1914;-43
2023/03/10 16:38:50;;;;;;;;;;;;;;;;;;5073110;28;1985;-43
2023/03/10 16:41:17;;;;;;;;;;;;;;;;;;5073022;28;1931;-43
2023/03/10 16:43:45;;;;;;;;;;;;;;;;;;5055535;28;2098;-44
2023/03/10 16:46:19;;;;;;;;;;;;;;;;;;5071817;28;2009;-45
2023/03/10 16:48:47;;;;;;;;;;;;;;;;;;5052708;28;1878;-42
2023/03/10 16:51:34;;;;;;;;;;;;;;;;;;5052925;28;1909;-45
2023/03/10 16:54:09;;;;;;;;;;;;;;;;;;5058534;28;2012;-45
2023/03/10 16:56:38;;;;;;;;;;;;;;;;;;5056212;28;2061;-44
2023/03/10 16:59:05;;;;;;;;;;;;;;;;;;5052540;28;2027;-46
2023/03/10 17:01:32;;;;;;;;;;;;;;;;;;5052456;28;1858;-44
2023/03/10 17:03:59;;;;;;;;;;;;;;;;;;5052751;28;1967;-43
2023/03/10 17:06:29;;;;;;;;;;;;;;;;;;5052640;28;1889;-46
2023/03/10 17:08:57;;;;;;;;;;;;;;;;;;5052543;28;1889;-44
2023/03/10 17:11:25;;;;;;;;;;;;;;;;;;5052403;28;2002;-47
2023/03/10 17:13:53;;;;;;;;;;;;;;;;;;5052534;28;1781;-42
2023/03/10 17:16:22;;;;;;;;;;;;;;;;;;5051288;28;1985;-45
2023/03/10 17:18:49;;;;;;;;;;;;;;;;;;5052330;28;2078;-45
2023/03/10 17:21:18;;;;;;;;;;;;;;;;;;5052313;28;2158;-43
2023/03/10 17:23:45;;;;;;;;;;;;;;;;;;5050893;28;1887;-45